createdAt,value
2019-01-23T00:00:31.393Z,-1.30
2019-01-23T00:03:00.021Z,-1.20
2019-01-23T00:05:28.674Z,-1.30
2019-01-23T00:07:57.295Z,-1.30
2019-01-23T00:10:25.952Z,-1.30
2019-01-23T00:12:54.574Z,-1.40
2019-01-23T00:15:23.243Z,-1.70
2019-01-23T00:17:51.927Z,-1.40
2019-01-23T00:20:20.747Z,-1.30
2019-01-23T00:22:49.366Z,-1.50
2019-01-23T00:25:17.965Z,-1.50
2019-01-23T00:27:46.636Z,-1.40
2019-01-23T00:30:16.574Z,-1.40
2019-01-23T00:32:45.267Z,-1.30
2019-01-23T00:35:14.063Z,-1.20
2019-01-23T00:37:42.690Z,-1.20
2019-01-23T00:40:16.035Z,-1.30
2019-01-23T00:42:44.801Z,-1.20
2019-01-23T00:45:15.481Z,-1.30
2019-01-23T00:47:44.099Z,-1.20
2019-01-23T00:50:14.810Z,-1.20
2019-01-23T00:52:43.498Z,-1.20
2019-01-23T00:55:17.230Z,-1.20
2019-01-23T00:57:45.932Z,-1.10
2019-01-23T01:00:18.101Z,-1.10
2019-01-23T01:02:46.827Z,-1.20
2019-01-23T01:05:16.292Z,-1.30
2019-01-23T01:07:45.025Z,-1.40
2019-01-23T01:10:16.485Z,-1.50
2019-01-23T01:12:45.220Z,-1.40
2019-01-23T01:15:14.186Z,-1.80
2019-01-23T01:17:43.115Z,-1.70
2019-01-23T01:20:15.966Z,-1.80
2019-01-23T01:22:44.623Z,-1.60
2019-01-23T01:25:15.390Z,-1.60
2019-01-23T01:27:44.050Z,-1.90
2019-01-23T01:30:15.610Z,-1.80
2019-01-23T01:32:44.205Z,-1.70
2019-01-23T01:35:12.973Z,-1.80
2019-01-23T01:37:41.567Z,-1.90
2019-01-23T01:40:12.840Z,-1.70
2019-01-23T01:42:41.469Z,-1.60
2019-01-23T01:45:11.687Z,-1.70
2019-01-23T01:47:40.283Z,-1.80
2019-01-23T01:50:17.350Z,-1.80
2019-01-23T01:52:46.494Z,-1.50
2019-01-23T01:55:15.266Z,-1.40
2019-01-23T01:57:44.094Z,-1.70
2019-01-23T02:00:21.083Z,-1.60
2019-01-23T02:02:49.748Z,-1.60
2019-01-23T02:05:18.910Z,-1.60
2019-01-23T02:07:47.675Z,-1.70
2019-01-23T02:10:18.842Z,-2.00
2019-01-23T02:12:47.874Z,-1.90
2019-01-23T02:15:17.144Z,-2.00
2019-01-23T02:17:45.886Z,-1.80
2019-01-23T02:20:19.605Z,-2.10
2019-01-23T02:22:48.262Z,-1.80
2019-01-23T02:25:17.402Z,-1.90
2019-01-23T02:27:46.803Z,-1.90
2019-01-23T02:30:20.674Z,-1.90
2019-01-23T02:32:49.339Z,-2.20
2019-01-23T02:35:18.228Z,-2.20
2019-01-23T02:37:47.092Z,-2.40
2019-01-23T02:40:17.956Z,-2.20
2019-01-23T02:42:46.704Z,-2.00
2019-01-23T02:45:16.061Z,-2.00
2019-01-23T02:47:44.833Z,-2.30
2019-01-23T02:50:14.605Z,-2.40
2019-01-23T02:52:43.209Z,-2.30
2019-01-23T02:55:12.568Z,-2.30
2019-01-23T02:57:41.505Z,-2.50
2019-01-23T03:00:15.453Z,-2.30
2019-01-23T03:02:44.217Z,-2.30
2019-01-23T03:05:15.486Z,-2.50
2019-01-23T03:07:44.082Z,-2.30
2019-01-23T03:10:15.940Z,-2.20
2019-01-23T03:12:44.603Z,-2.40
2019-01-23T03:15:15.830Z,-2.30
2019-01-23T03:17:44.601Z,-2.10
2019-01-23T03:20:15.436Z,-2.20
2019-01-23T03:22:44.370Z,-2.30
2019-01-23T03:25:14.823Z,-2.30
2019-01-23T03:27:43.693Z,-2.40
2019-01-23T03:30:14.915Z,-2.20
2019-01-23T03:32:43.566Z,-2.20
2019-01-23T03:35:12.474Z,-2.60
2019-01-23T03:37:41.086Z,-2.50
2019-01-23T03:40:12.894Z,-2.40
2019-01-23T03:42:41.526Z,-2.40
2019-01-23T03:45:11.662Z,-2.70
2019-01-23T03:47:40.614Z,-2.60
2019-01-23T03:50:14.398Z,-2.60
2019-01-23T03:52:43.194Z,-2.40
2019-01-23T03:55:13.628Z,-2.20
2019-01-23T03:57:42.394Z,-2.30
2019-01-23T04:00:13.525Z,-2.70
2019-01-23T04:02:42.488Z,-2.80
2019-01-23T04:05:12.047Z,-2.60
2019-01-23T04:07:40.887Z,-2.30
2019-01-23T04:10:15.090Z,-2.30
2019-01-23T04:12:44.227Z,-2.30
2019-01-23T04:15:15.196Z,-2.40
2019-01-23T04:17:43.932Z,-2.20
2019-01-23T04:20:14.906Z,-2.10
2019-01-23T04:22:44.044Z,-2.20
2019-01-23T04:25:13.158Z,-2.40
2019-01-23T04:27:41.819Z,-2.30
2019-01-23T04:30:21.930Z,-2.80
2019-01-23T04:32:50.767Z,-2.30
2019-01-23T04:35:19.343Z,-2.40
2019-01-23T04:37:48.102Z,-2.30
2019-01-23T04:40:16.837Z,-2.40
2019-01-23T04:42:45.516Z,-2.60
2019-01-23T04:45:16.014Z,-2.60
2019-01-23T04:47:44.875Z,-2.60
2019-01-23T04:50:15.786Z,-2.20
2019-01-23T04:52:46.072Z,-2.80
2019-01-23T04:55:14.803Z,-2.50
2019-01-23T04:57:43.372Z,-2.40
2019-01-23T05:00:15.056Z,-2.80
2019-01-23T05:02:43.626Z,-2.80
2019-01-23T05:05:12.636Z,-2.40
2019-01-23T05:07:41.206Z,-2.40
2019-01-23T05:10:09.871Z,-2.30
2019-01-23T05:12:38.498Z,-2.50
2019-01-23T05:15:08.946Z,-2.40
2019-01-23T05:17:37.526Z,-2.40
2019-01-23T05:20:09.302Z,-2.40
2019-01-23T05:22:37.878Z,-2.20
2019-01-23T05:25:07.216Z,-2.50
2019-01-23T05:27:36.057Z,-2.60
2019-01-23T05:30:07.735Z,-2.70
2019-01-23T05:32:36.416Z,-2.40
2019-01-23T05:35:05.927Z,-2.60
2019-01-23T05:37:34.506Z,-2.40
2019-01-23T05:40:04.698Z,-2.50
2019-01-23T05:42:33.223Z,-2.50
2019-01-23T05:45:01.808Z,-2.40
2019-01-23T05:47:30.418Z,-2.70
2019-01-23T05:49:58.986Z,-2.50
2019-01-23T05:52:27.656Z,-3.30
2019-01-23T05:54:56.226Z,-3.10
2019-01-23T05:57:24.828Z,-2.70
2019-01-23T05:59:53.399Z,-3.00
2019-01-23T06:02:22.006Z,-2.60
2019-01-23T06:04:50.584Z,-2.50
2019-01-23T06:07:19.186Z,-2.60
2019-01-23T06:09:47.755Z,-2.60
2019-01-23T06:12:16.350Z,-2.70
2019-01-23T06:14:44.920Z,-2.40
2019-01-23T06:17:13.583Z,-2.90
2019-01-23T06:19:42.139Z,-3.00
2019-01-23T06:22:10.742Z,-3.00
2019-01-23T06:24:39.334Z,-2.60
2019-01-23T06:27:07.922Z,-2.50
2019-01-23T06:29:36.499Z,-2.60
2019-01-23T06:32:05.143Z,-2.50
2019-01-23T06:34:33.734Z,-2.80
2019-01-23T06:37:02.335Z,-2.80
2019-01-23T06:39:30.942Z,-2.70
2019-01-23T06:41:59.682Z,-2.60
2019-01-23T06:44:28.319Z,-2.60
2019-01-23T06:46:56.878Z,-2.70
2019-01-23T06:49:25.479Z,-2.80
2019-01-23T06:51:54.048Z,-3.00
2019-01-23T06:54:22.651Z,-2.70
2019-01-23T06:56:51.218Z,-2.70
2019-01-23T06:59:19.815Z,-2.50
2019-01-23T07:01:48.381Z,-2.60
2019-01-23T07:04:16.992Z,-2.80
2019-01-23T07:06:45.558Z,-2.70
2019-01-23T07:09:14.222Z,-2.70
2019-01-23T07:11:42.794Z,-2.80
2019-01-23T07:14:11.397Z,-2.70
2019-01-23T07:16:39.963Z,-2.70
2019-01-23T07:19:08.573Z,-2.70
2019-01-23T07:21:37.146Z,-3.00
2019-01-23T07:24:05.750Z,-2.80
2019-01-23T07:26:34.357Z,-2.60
2019-01-23T07:29:02.942Z,-2.70
2019-01-23T07:31:31.514Z,-2.70
2019-01-23T07:34:00.021Z,-2.50
2019-01-23T07:36:28.701Z,-2.50
2019-01-23T07:38:57.271Z,-2.50
2019-01-23T07:41:25.875Z,-2.60
2019-01-23T07:43:54.454Z,-2.30
2019-01-23T07:46:23.070Z,-2.40
2019-01-23T07:48:51.647Z,-2.40
2019-01-23T07:51:20.255Z,-2.30
2019-01-23T07:53:48.895Z,-2.30
2019-01-23T07:56:17.506Z,-2.80
2019-01-23T07:58:46.067Z,-2.60
2019-01-23T08:01:14.742Z,-2.50
2019-01-23T08:03:43.369Z,-2.40
2019-01-23T08:06:11.974Z,-2.40
2019-01-23T08:08:40.551Z,-2.50
2019-01-23T08:11:09.221Z,-2.30
2019-01-23T08:13:37.814Z,-2.40
2019-01-23T08:16:06.511Z,-2.40
2019-01-23T08:18:35.076Z,-2.10
2019-01-23T08:21:03.819Z,-2.20
2019-01-23T08:23:32.390Z,-2.00
2019-01-23T08:26:00.915Z,-1.80
2019-01-23T08:28:29.495Z,-1.60
2019-01-23T08:30:58.164Z,-1.70
2019-01-23T08:33:26.731Z,-1.80
2019-01-23T08:35:55.348Z,-1.60
2019-01-23T08:38:23.955Z,-1.50
2019-01-23T08:40:52.574Z,-1.40
2019-01-23T08:43:21.137Z,-1.50
2019-01-23T08:45:49.702Z,-1.70
2019-01-23T08:48:18.314Z,-1.40
2019-01-23T08:50:46.954Z,-1.30
2019-01-23T08:53:15.614Z,-1.20
2019-01-23T08:55:44.178Z,-1.00
2019-01-23T08:58:12.778Z,-1.10
2019-01-23T09:00:45.822Z,-0.80
2019-01-23T09:03:11.803Z,-0.90
2019-01-23T09:05:40.442Z,-0.70
2019-01-23T09:08:09.278Z,-0.40
2019-01-23T09:10:38.034Z,-0.40
2019-01-23T09:13:06.687Z,-0.50
2019-01-23T09:15:35.270Z,-0.30
2019-01-23T09:18:04.341Z,-0.50
2019-01-23T09:20:32.895Z,-0.40
2019-01-23T09:23:01.495Z,-0.40
2019-01-23T09:25:30.131Z,0.20
2019-01-23T09:27:58.843Z,0.20
2019-01-23T09:30:30.402Z,0.10
2019-01-23T09:33:13.629Z,0.40
2019-01-23T09:35:51.306Z,0.20
2019-01-23T09:38:56.372Z,0.20
2019-01-23T09:41:53.591Z,0.80
2019-01-23T09:44:27.855Z,1.60
2019-01-23T09:47:20.910Z,2.20
2019-01-23T09:49:52.526Z,2.50
2019-01-23T09:52:27.165Z,2.90
2019-01-23T09:54:55.767Z,3.20
2019-01-23T09:57:24.390Z,3.30
2019-01-23T09:59:52.879Z,3.50
2019-01-23T10:02:21.470Z,4.10
2019-01-23T10:04:50.035Z,4.60
2019-01-23T10:07:18.624Z,4.40
2019-01-23T10:09:47.182Z,6.30
2019-01-23T10:12:17.524Z,6.40
2019-01-23T10:14:46.047Z,7.30
2019-01-23T10:17:14.645Z,8.00
2019-01-23T10:19:43.228Z,7.10
2019-01-23T10:22:11.946Z,6.70
2019-01-23T10:24:40.514Z,6.00
2019-01-23T10:27:09.338Z,6.50
2019-01-23T10:29:37.899Z,7.40
2019-01-23T10:32:06.493Z,7.30
2019-01-23T10:34:35.127Z,7.40
2019-01-23T10:37:03.916Z,7.90
2019-01-23T10:39:32.466Z,9.30
2019-01-23T10:42:01.232Z,8.60
2019-01-23T10:44:29.786Z,9.50
2019-01-23T10:46:58.391Z,10.00
2019-01-23T10:49:27.099Z,10.50
2019-01-23T10:51:55.736Z,10.50
2019-01-23T10:54:24.331Z,11.40
2019-01-23T10:56:52.891Z,10.70
2019-01-23T10:59:21.487Z,9.20
2019-01-23T11:01:50.050Z,9.50
2019-01-23T11:04:18.725Z,10.50
2019-01-23T11:06:47.363Z,11.60
2019-01-23T11:09:15.976Z,11.90
2019-01-23T11:11:44.502Z,11.80
2019-01-23T11:14:13.200Z,9.70
2019-01-23T11:16:41.831Z,10.60
2019-01-23T11:19:10.421Z,11.00
2019-01-23T11:21:38.983Z,11.70
2019-01-23T11:24:07.574Z,11.80
2019-01-23T11:26:36.313Z,12.50
2019-01-23T11:29:05.190Z,12.40
2019-01-23T11:31:33.822Z,12.70
2019-01-23T11:34:02.496Z,13.20
2019-01-23T11:36:31.071Z,12.80
2019-01-23T11:38:59.671Z,12.80
2019-01-23T11:41:28.259Z,12.70
2019-01-23T11:43:56.914Z,12.60
2019-01-23T11:46:25.485Z,12.70
2019-01-23T11:48:54.079Z,12.70
2019-01-23T11:51:22.635Z,12.20
2019-01-23T11:53:51.230Z,12.40
2019-01-23T11:56:19.875Z,12.90
2019-01-23T11:58:48.396Z,12.80
2019-01-23T12:01:16.958Z,12.60
2019-01-23T12:03:45.519Z,13.30
2019-01-23T12:06:14.254Z,13.40
2019-01-23T12:08:42.887Z,12.70
2019-01-23T12:11:11.463Z,13.50
2019-01-23T12:13:40.123Z,13.30
2019-01-23T12:16:08.687Z,14.10
2019-01-23T12:18:37.366Z,13.50
2019-01-23T12:21:05.937Z,12.60
2019-01-23T12:23:34.670Z,13.10
2019-01-23T12:26:03.303Z,13.00
2019-01-23T12:28:31.906Z,12.60
2019-01-23T12:31:00.541Z,12.60
2019-01-23T12:33:29.109Z,11.80
2019-01-23T12:35:57.770Z,11.40
2019-01-23T12:38:26.339Z,11.10
2019-01-23T12:40:54.943Z,11.00
2019-01-23T12:43:23.514Z,10.10
2019-01-23T12:45:52.120Z,11.10
2019-01-23T12:48:20.679Z,12.00
2019-01-23T12:50:49.271Z,12.10
2019-01-23T12:53:17.830Z,12.80
2019-01-23T12:55:46.423Z,13.30
2019-01-23T12:58:15.005Z,13.80
2019-01-23T13:00:43.604Z,13.60
2019-01-23T13:03:12.511Z,13.10
2019-01-23T13:05:41.184Z,12.00
2019-01-23T13:08:09.755Z,12.70
2019-01-23T13:10:38.423Z,12.30
2019-01-23T13:13:07.132Z,12.90
2019-01-23T13:15:35.891Z,12.10
2019-01-23T13:18:04.697Z,12.70
2019-01-23T13:20:33.294Z,12.70
2019-01-23T13:23:01.935Z,12.60
2019-01-23T13:25:30.598Z,12.30
2019-01-23T13:28:00.967Z,12.00
2019-01-23T13:30:29.541Z,11.00
2019-01-23T13:32:58.152Z,10.70
2019-01-23T13:35:49.020Z,10.10
2019-01-23T13:38:17.663Z,9.30
2019-01-23T13:40:46.349Z,10.00
2019-01-23T13:43:14.983Z,10.20
2019-01-23T13:45:43.568Z,10.40
2019-01-23T13:48:12.713Z,10.50
2019-01-23T13:50:41.361Z,10.00
2019-01-23T13:53:10.025Z,10.90
2019-01-23T13:55:38.669Z,10.10
2019-01-23T13:58:07.671Z,9.40
2019-01-23T14:00:42.499Z,9.50
2019-01-23T14:03:11.475Z,8.50
2019-01-23T14:05:40.110Z,8.30
2019-01-23T14:08:09.070Z,9.20
2019-01-23T14:10:37.780Z,8.50
2019-01-23T14:13:06.622Z,7.90
2019-01-23T14:15:37.131Z,7.80
2019-01-23T14:18:06.477Z,8.20
2019-01-23T14:20:35.281Z,7.40
2019-01-23T14:23:04.115Z,6.80
2019-01-23T14:25:32.860Z,6.90
2019-01-23T14:28:01.539Z,6.30
2019-01-23T14:30:32.816Z,7.10
2019-01-23T14:33:01.478Z,7.00
2019-01-23T14:35:30.796Z,5.20
2019-01-23T14:38:00.815Z,5.10
2019-01-23T14:40:29.679Z,5.10
2019-01-23T14:42:58.339Z,4.40
2019-01-23T14:45:27.043Z,3.40
2019-01-23T14:47:55.807Z,3.30
2019-01-23T14:50:25.089Z,3.10
2019-01-23T14:52:54.209Z,3.00
2019-01-23T14:55:22.971Z,2.50
2019-01-23T14:57:51.811Z,2.60
2019-01-23T15:00:26.459Z,2.00
2019-01-23T15:02:55.087Z,1.70
2019-01-23T15:05:23.683Z,1.60
2019-01-23T15:07:52.269Z,1.00
2019-01-23T15:10:26.753Z,1.30
2019-01-23T15:12:55.911Z,1.10
2019-01-23T15:15:24.669Z,1.00
2019-01-23T15:17:53.978Z,0.40
2019-01-23T15:20:25.025Z,0.40
2019-01-23T15:22:53.658Z,0.40
2019-01-23T15:25:22.597Z,0.30
2019-01-23T15:27:51.167Z,0.50
2019-01-23T15:30:21.903Z,0.40
2019-01-23T15:32:52.203Z,0.30
2019-01-23T15:35:21.355Z,0.20
2019-01-23T15:37:50.012Z,0.20
2019-01-23T15:40:21.154Z,0.20
2019-01-23T15:42:49.797Z,0.20
2019-01-23T15:45:18.571Z,0.20
2019-01-23T15:47:47.287Z,0.10
2019-01-23T15:50:21.599Z,0.30
2019-01-23T15:52:50.319Z,-0.20
2019-01-23T15:55:21.183Z,-0.50
2019-01-23T15:57:49.824Z,-0.60
2019-01-23T16:00:23.576Z,-0.30
2019-01-23T16:02:52.331Z,-0.50
2019-01-23T16:05:20.967Z,-1.20
2019-01-23T16:07:49.575Z,-0.70
2019-01-23T16:10:23.439Z,-1.30
2019-01-23T16:12:52.287Z,-0.80
2019-01-23T16:15:23.403Z,-1.10
2019-01-23T16:17:52.188Z,-0.80
2019-01-23T16:20:20.899Z,-0.90
2019-01-23T16:22:49.578Z,-0.90
2019-01-23T16:25:18.291Z,-1.00
2019-01-23T16:27:46.885Z,-1.00
2019-01-23T16:30:18.897Z,-0.90
2019-01-23T16:32:47.571Z,-1.10
2019-01-23T16:35:16.323Z,-1.10
2019-01-23T16:37:45.355Z,-1.00
2019-01-23T16:40:14.195Z,-0.70
2019-01-23T16:42:42.938Z,-0.70
2019-01-23T16:45:17.358Z,-0.80
2019-01-23T16:47:46.135Z,-1.10
2019-01-23T16:50:17.954Z,-1.00
2019-01-23T16:52:46.664Z,-1.00
2019-01-23T16:55:15.811Z,-1.30
2019-01-23T16:57:45.624Z,-1.20
2019-01-23T17:00:19.347Z,-0.80
2019-01-23T17:02:48.011Z,-0.90
2019-01-23T17:05:19.955Z,-0.70
2019-01-23T17:07:48.598Z,-0.60
2019-01-23T17:10:19.735Z,-0.80
2019-01-23T17:12:48.313Z,-0.60
2019-01-23T17:15:17.050Z,-1.10
2019-01-23T17:17:45.891Z,-0.80
2019-01-23T17:20:20.239Z,-0.60
2019-01-23T17:22:48.884Z,-0.60
2019-01-23T17:25:17.637Z,-0.90
2019-01-23T17:27:46.581Z,-0.80
2019-01-23T17:30:17.421Z,-0.70
2019-01-23T17:32:46.001Z,-1.10
2019-01-23T17:35:17.707Z,-0.90
2019-01-23T17:37:46.386Z,-0.70
2019-01-23T17:40:20.311Z,-0.80
2019-01-23T17:42:48.987Z,-0.70
2019-01-23T17:45:26.527Z,-0.70
2019-01-23T17:47:55.216Z,-0.70
2019-01-23T17:50:24.433Z,-1.00
2019-01-23T17:52:53.407Z,-0.70
2019-01-23T17:55:24.464Z,-0.80
2019-01-23T17:57:53.324Z,-0.70
2019-01-23T18:03:16.893Z,-0.50
2019-01-23T18:05:51.075Z,-0.40
2019-01-23T18:08:15.702Z,-0.40
2019-01-23T18:10:44.275Z,-0.80
2019-01-23T18:13:12.877Z,-0.90
2019-01-23T18:15:42.187Z,-1.10
2019-01-23T18:18:12.528Z,-0.70
2019-01-23T18:20:41.188Z,-0.50
2019-01-23T18:23:09.834Z,-0.30
2019-01-23T18:25:38.587Z,-0.60
2019-01-23T18:28:07.302Z,-0.30
2019-01-23T18:30:50.861Z,-0.10
2019-01-23T18:33:27.626Z,-0.30
2019-01-23T18:35:59.638Z,-0.40
2019-01-23T18:38:31.384Z,-0.40
2019-01-23T18:41:11.799Z,-0.40
2019-01-23T18:44:17.764Z,-0.40
2019-01-23T18:47:01.411Z,-0.40
2019-01-23T18:49:38.984Z,-0.20
2019-01-23T18:52:15.164Z,-0.20
2019-01-23T18:54:44.611Z,0.10
2019-01-23T18:57:22.227Z,0.00
2019-01-23T18:59:50.902Z,0.00
2019-01-23T19:02:19.595Z,-0.30
2019-01-23T19:04:48.181Z,-0.50
2019-01-23T19:07:16.834Z,-0.30
2019-01-23T19:09:45.417Z,-0.20
2019-01-23T19:12:14.170Z,-0.30
2019-01-23T19:14:42.983Z,-0.20
2019-01-23T19:17:11.740Z,-0.30
2019-01-23T19:19:40.371Z,0.00
2019-01-23T19:22:08.992Z,0.10
2019-01-23T19:24:37.564Z,0.10
2019-01-23T19:27:06.386Z,0.10
2019-01-23T19:29:34.982Z,0.00
2019-01-23T19:32:04.401Z,0.20
2019-01-23T19:34:33.006Z,0.20
2019-01-23T19:37:01.582Z,0.10
2019-01-23T19:39:30.180Z,0.10
2019-01-23T19:41:58.888Z,0.10
2019-01-23T19:44:27.480Z,0.00
2019-01-23T19:46:56.129Z,0.00
2019-01-23T19:49:24.787Z,0.00
2019-01-23T19:51:53.516Z,0.00
2019-01-23T19:54:22.123Z,0.00
2019-01-23T19:56:50.683Z,0.10
2019-01-23T19:59:19.289Z,-0.10
2019-01-23T20:01:47.999Z,0.00
2019-01-23T20:04:16.613Z,0.00
2019-01-23T20:06:45.185Z,-0.10
2019-01-23T20:09:13.971Z,-0.10
2019-01-23T20:11:42.624Z,-0.10
2019-01-23T20:14:11.337Z,-0.10
2019-01-23T20:16:39.872Z,-0.20
2019-01-23T20:19:09.826Z,-0.20
2019-01-23T20:21:38.402Z,-0.30
2019-01-23T20:24:07.160Z,-0.40
2019-01-23T20:26:35.761Z,-0.60
2019-01-23T20:29:04.894Z,-0.60
2019-01-23T20:31:33.542Z,-0.60
2019-01-23T20:34:02.119Z,-0.60
2019-01-23T20:36:30.727Z,-0.70
2019-01-23T20:38:59.304Z,-0.70
2019-01-23T20:41:27.924Z,-0.70
2019-01-23T20:43:56.508Z,-0.80
2019-01-23T20:46:25.192Z,-0.90
2019-01-23T20:48:53.772Z,-0.90
2019-01-23T20:51:22.446Z,-0.90
2019-01-23T20:53:51.024Z,-0.90
2019-01-23T20:56:19.643Z,-1.10
2019-01-23T20:58:48.211Z,-1.00
2019-01-23T21:01:16.818Z,-0.90
2019-01-23T21:03:45.468Z,-0.90
2019-01-23T21:06:14.288Z,-1.00
2019-01-23T21:08:42.865Z,-1.00
2019-01-23T21:11:11.717Z,-1.00
2019-01-23T21:13:40.312Z,-1.10
2019-01-23T21:16:09.160Z,-1.20
2019-01-23T21:18:37.726Z,-1.20
2019-01-23T21:21:06.306Z,-1.30
2019-01-23T21:23:34.986Z,-1.30
2019-01-23T21:26:03.573Z,-1.30
2019-01-23T21:28:32.178Z,-1.10
2019-01-23T21:31:00.810Z,-1.20
2019-01-23T21:33:29.424Z,-1.00
2019-01-23T21:35:58.008Z,-1.10
2019-01-23T21:38:26.582Z,-0.90
2019-01-23T21:40:55.191Z,-1.00
2019-01-23T21:43:23.841Z,-1.00
2019-01-23T21:45:52.550Z,-1.20
2019-01-23T21:48:21.064Z,-1.10
2019-01-23T21:50:49.842Z,-1.00
2019-01-23T21:53:18.412Z,-1.00
2019-01-23T21:55:47.085Z,-1.00
2019-01-23T21:58:15.664Z,-1.10
2019-01-23T22:00:44.344Z,-1.20
2019-01-23T22:03:13.060Z,-1.10
2019-01-23T22:05:41.843Z,-1.20
2019-01-23T22:08:10.682Z,-1.10
2019-01-23T22:10:39.260Z,-1.20
2019-01-23T22:13:07.934Z,-1.30
2019-01-23T22:15:36.574Z,-1.40
2019-01-23T22:18:06.793Z,-1.50
2019-01-23T22:20:35.364Z,-1.30
2019-01-23T22:23:04.207Z,-1.30
2019-01-23T22:25:32.792Z,-1.30
2019-01-23T22:28:01.465Z,-1.50
2019-01-23T22:30:34.280Z,-1.50
2019-01-23T22:33:02.946Z,-1.60
2019-01-23T22:35:31.521Z,-1.60
2019-01-23T22:38:00.121Z,-1.60
2019-01-23T22:40:28.759Z,-1.80
2019-01-23T22:42:57.360Z,-1.70
2019-01-23T22:45:26.008Z,-1.80
2019-01-23T22:47:55.116Z,-1.70
2019-01-23T22:50:26.191Z,-1.60
2019-01-23T22:52:54.938Z,-1.50
2019-01-23T22:55:23.592Z,-1.40
2019-01-23T22:57:52.253Z,-1.60
2019-01-23T23:00:55.018Z,-1.60
2019-01-23T23:03:23.625Z,-1.50
2019-01-23T23:05:52.334Z,-1.40
2019-01-23T23:08:21.006Z,-1.40
2019-01-23T23:10:49.750Z,-1.20
2019-01-23T23:13:18.350Z,-1.20
2019-01-23T23:15:47.791Z,-1.40
2019-01-23T23:18:16.458Z,-1.30
2019-01-23T23:20:45.034Z,-1.20
2019-01-23T23:23:13.640Z,-1.20
2019-01-23T23:25:42.214Z,-1.20
2019-01-23T23:28:11.067Z,-1.20
2019-01-23T23:30:39.638Z,-1.20
2019-01-23T23:33:08.240Z,-1.30
2019-01-23T23:35:36.812Z,-1.20
2019-01-23T23:38:05.581Z,-1.20
2019-01-23T23:40:34.226Z,-1.30
2019-01-23T23:43:02.768Z,-1.20
2019-01-23T23:45:31.418Z,-1.00
2019-01-23T23:47:59.948Z,-1.20
2019-01-23T23:50:28.585Z,-1.10
2019-01-23T23:52:57.154Z,-1.20
2019-01-23T23:55:25.684Z,-1.10
2019-01-23T23:57:54.248Z,-1.00
